Farner, Tennessee
Current Conditions -  °F | °C
As of 1:35 PM on Wednesday 26 Nov 2014 (Local Time) from KMMI Reporting Station
Clear Clear  
Wind Chill: 50°   Ceiling: Unl
Heat Index: 50°   Visibility: 10mi
Dew Point: 21°   Wind: 5mph
Humidity: 32%   Direction: 270°W
Pressure: 30.07"   Gusts: NA
Location:  35.15°N, 84.31°W
Report Text: KMMI 261835Z AUTO 27004KT 10SM CLR 10/M06 A3007 RMK
Loading
Personal Weather Stations






























Interactive Weather Map New forecast layout! Learn more

10-Day Weather Forecast

Advertisements
Track Severe Weather on mobile